sensor_id;sensor_type;location;lat;lon;timestamp;P1;durP1;ratioP1;P2;durP2;ratioP2
57217;SDS011;43078;52.972;6.482;2022-12-15T00:01:29;18.00;;;10.02;;
57217;SDS011;43078;52.972;6.482;2022-12-15T00:04:13;17.45;;;9.90;;
57217;SDS011;43078;52.972;6.482;2022-12-15T00:06:57;18.30;;;10.13;;
57217;SDS011;43078;52.972;6.482;2022-12-15T00:09:42;14.82;;;9.02;;
57217;SDS011;43078;52.972;6.482;2022-12-15T00:12:26;18.83;;;9.88;;
57217;SDS011;43078;52.972;6.482;2022-12-15T00:15:10;15.50;;;9.07;;
57217;SDS011;43078;52.972;6.482;2022-12-15T00:17:54;16.50;;;10.05;;
57217;SDS011;43078;52.972;6.482;2022-12-15T00:20:38;16.67;;;9.85;;
57217;SDS011;43078;52.972;6.482;2022-12-15T00:23:22;16.05;;;9.77;;
57217;SDS011;43078;52.972;6.482;2022-12-15T00:26:07;15.98;;;9.10;;
57217;SDS011;43078;52.972;6.482;2022-12-15T00:28:51;15.07;;;9.15;;
57217;SDS011;43078;52.972;6.482;2022-12-15T00:31:35;16.98;;;9.65;;
57217;SDS011;43078;52.972;6.482;2022-12-15T00:34:20;16.08;;;9.50;;
57217;SDS011;43078;52.972;6.482;2022-12-15T00:37:04;18.83;;;9.93;;
57217;SDS011;43078;52.972;6.482;2022-12-15T00:39:48;17.35;;;9.57;;
57217;SDS011;43078;52.972;6.482;2022-12-15T00:42:26;18.83;;;9.98;;
57217;SDS011;43078;52.972;6.482;2022-12-15T00:44:53;17.60;;;9.93;;
57217;SDS011;43078;52.972;6.482;2022-12-15T00:47:23;15.95;;;9.07;;
57217;SDS011;43078;52.972;6.482;2022-12-15T00:49:49;15.82;;;9.40;;
57217;SDS011;43078;52.972;6.482;2022-12-15T00:52:34;14.93;;;9.13;;
57217;SDS011;43078;52.972;6.482;2022-12-15T00:55:18;14.80;;;8.30;;
57217;SDS011;43078;52.972;6.482;2022-12-15T00:58:02;15.38;;;8.93;;
57217;SDS011;43078;52.972;6.482;2022-12-15T01:00:46;13.98;;;8.45;;
57217;SDS011;43078;52.972;6.482;2022-12-15T01:03:30;14.05;;;8.80;;
57217;SDS011;43078;52.972;6.482;2022-12-15T01:06:16;14.70;;;8.40;;
57217;SDS011;43078;52.972;6.482;2022-12-15T01:09:02;15.18;;;8.93;;
57217;SDS011;43078;52.972;6.482;2022-12-15T01:11:47;15.68;;;9.27;;
57217;SDS011;43078;52.972;6.482;2022-12-15T01:14:32;15.02;;;8.25;;
57217;SDS011;43078;52.972;6.482;2022-12-15T01:17:17;14.45;;;8.68;;
57217;SDS011;43078;52.972;6.482;2022-12-15T01:20:02;17.10;;;8.65;;
57217;SDS011;43078;52.972;6.482;2022-12-15T01:22:48;16.27;;;8.85;;
57217;SDS011;43078;52.972;6.482;2022-12-15T01:25:17;15.82;;;8.32;;
57217;SDS011;43078;52.972;6.482;2022-12-15T01:27:45;16.02;;;9.20;;
57217;SDS011;43078;52.972;6.482;2022-12-15T01:30:12;16.60;;;8.88;;
57217;SDS011;43078;52.972;6.482;2022-12-15T01:32:39;14.73;;;8.50;;
57217;SDS011;43078;52.972;6.482;2022-12-15T01:35:05;16.05;;;8.73;;
57217;SDS011;43078;52.972;6.482;2022-12-15T01:37:32;14.73;;;8.43;;
57217;SDS011;43078;52.972;6.482;2022-12-15T01:39:59;14.20;;;8.05;;
57217;SDS011;43078;52.972;6.482;2022-12-15T01:42:43;14.73;;;8.50;;
57217;SDS011;43078;52.972;6.482;2022-12-15T01:47:47;14.00;;;8.60;;
57217;SDS011;43078;52.972;6.482;2022-12-15T01:50:12;14.30;;;8.68;;
57217;SDS011;43078;52.972;6.482;2022-12-15T01:52:39;12.80;;;7.57;;
57217;SDS011;43078;52.972;6.482;2022-12-15T01:55:04;15.90;;;8.82;;
57217;SDS011;43078;52.972;6.482;2022-12-15T01:57:31;14.02;;;8.38;;
57217;SDS011;43078;52.972;6.482;2022-12-15T01:59:59;14.00;;;8.07;;
57217;SDS011;43078;52.972;6.482;2022-12-15T02:02:28;13.60;;;8.02;;
57217;SDS011;43078;52.972;6.482;2022-12-15T02:04:56;14.05;;;8.15;;
57217;SDS011;43078;52.972;6.482;2022-12-15T02:07:23;14.68;;;7.95;;
57217;SDS011;43078;52.972;6.482;2022-12-15T02:09:54;14.10;;;7.63;;
57217;SDS011;43078;52.972;6.482;2022-12-15T02:12:27;13.55;;;8.18;;
57217;SDS011;43078;52.972;6.482;2022-12-15T02:21:09;12.60;;;7.35;;
57217;SDS011;43078;52.972;6.482;2022-12-15T02:38:02;13.02;;;7.43;;
57217;SDS011;43078;52.972;6.482;2022-12-15T02:40:28;12.07;;;7.40;;
57217;SDS011;43078;52.972;6.482;2022-12-15T02:42:54;14.10;;;8.05;;
57217;SDS011;43078;52.972;6.482;2022-12-15T02:45:44;13.55;;;7.38;;
57217;SDS011;43078;52.972;6.482;2022-12-15T02:48:35;13.32;;;8.07;;
57217;SDS011;43078;52.972;6.482;2022-12-15T02:51:27;12.82;;;7.53;;
57217;SDS011;43078;52.972;6.482;2022-12-15T02:59:44;12.63;;;7.88;;
57217;SDS011;43078;52.972;6.482;2022-12-15T03:02:19;12.65;;;7.30;;
57217;SDS011;43078;52.972;6.482;2022-12-15T03:04:48;13.23;;;7.35;;
57217;SDS011;43078;52.972;6.482;2022-12-15T03:07:14;15.63;;;7.35;;
57217;SDS011;43078;52.972;6.482;2022-12-15T03:09:40;13.70;;;7.07;;
57217;SDS011;43078;52.972;6.482;2022-12-15T03:12:06;13.43;;;7.05;;
57217;SDS011;43078;52.972;6.482;2022-12-15T03:14:32;12.73;;;7.13;;
57217;SDS011;43078;52.972;6.482;2022-12-15T03:16:58;11.98;;;7.70;;
57217;SDS011;43078;52.972;6.482;2022-12-15T03:19:24;12.38;;;6.78;;
57217;SDS011;43078;52.972;6.482;2022-12-15T03:21:50;12.70;;;6.88;;
57217;SDS011;43078;52.972;6.482;2022-12-15T03:24:16;13.13;;;7.07;;
57217;SDS011;43078;52.972;6.482;2022-12-15T03:26:42;12.57;;;7.22;;
57217;SDS011;43078;52.972;6.482;2022-12-15T03:29:07;13.82;;;7.25;;
57217;SDS011;43078;52.972;6.482;2022-12-15T03:31:33;11.32;;;7.20;;
57217;SDS011;43078;52.972;6.482;2022-12-15T03:33:59;12.57;;;6.93;;
57217;SDS011;43078;52.972;6.482;2022-12-15T03:36:26;11.18;;;7.18;;
57217;SDS011;43078;52.972;6.482;2022-12-15T03:38:51;11.38;;;7.05;;
57217;SDS011;43078;52.972;6.482;2022-12-15T03:41:17;13.10;;;7.30;;
57217;SDS011;43078;52.972;6.482;2022-12-15T03:43:43;15.10;;;8.63;;
57217;SDS011;43078;52.972;6.482;2022-12-15T03:46:10;11.93;;;6.88;;
57217;SDS011;43078;52.972;6.482;2022-12-15T03:48:36;12.13;;;7.05;;
57217;SDS011;43078;52.972;6.482;2022-12-15T03:51:02;13.40;;;7.47;;
57217;SDS011;43078;52.972;6.482;2022-12-15T03:53:27;10.70;;;6.25;;
57217;SDS011;43078;52.972;6.482;2022-12-15T03:55:53;16.20;;;9.20;;
57217;SDS011;43078;52.972;6.482;2022-12-15T03:58:19;14.82;;;7.80;;
57217;SDS011;43078;52.972;6.482;2022-12-15T04:00:45;13.70;;;7.05;;
57217;SDS011;43078;52.972;6.482;2022-12-15T04:03:10;16.17;;;9.80;;
57217;SDS011;43078;52.972;6.482;2022-12-15T04:05:36;16.85;;;8.40;;
57217;SDS011;43078;52.972;6.482;2022-12-15T04:08:02;17.20;;;8.25;;
57217;SDS011;43078;52.972;6.482;2022-12-15T04:10:29;15.07;;;7.57;;
57217;SDS011;43078;52.972;6.482;2022-12-15T04:13:00;12.85;;;7.05;;
57217;SDS011;43078;52.972;6.482;2022-12-15T04:15:32;12.73;;;7.35;;
57217;SDS011;43078;52.972;6.482;2022-12-15T04:17:59;9.57;;;6.15;;
57217;SDS011;43078;52.972;6.482;2022-12-15T04:20:27;12.60;;;6.55;;
57217;SDS011;43078;52.972;6.482;2022-12-15T04:22:52;12.27;;;6.93;;
57217;SDS011;43078;52.972;6.482;2022-12-15T04:25:19;10.55;;;5.80;;
57217;SDS011;43078;52.972;6.482;2022-12-15T04:28:07;12.27;;;7.05;;
57217;SDS011;43078;52.972;6.482;2022-12-15T04:30:53;10.68;;;6.68;;
57217;SDS011;43078;52.972;6.482;2022-12-15T04:33:40;13.13;;;7.40;;
57217;SDS011;43078;52.972;6.482;2022-12-15T04:36:27;12.98;;;6.93;;
57217;SDS011;43078;52.972;6.482;2022-12-15T04:39:12;12.70;;;7.07;;
57217;SDS011;43078;52.972;6.482;2022-12-15T04:41:58;11.55;;;6.22;;
57217;SDS011;43078;52.972;6.482;2022-12-15T04:44:44;9.95;;;5.72;;
57217;SDS011;43078;52.972;6.482;2022-12-15T04:47:29;13.75;;;7.13;;
57217;SDS011;43078;52.972;6.482;2022-12-15T04:50:14;16.45;;;8.68;;
57217;SDS011;43078;52.972;6.482;2022-12-15T04:53:17;14.30;;;7.00;;
57217;SDS011;43078;52.972;6.482;2022-12-15T04:56:02;13.97;;;8.07;;
57217;SDS011;43078;52.972;6.482;2022-12-15T04:58:46;16.27;;;8.82;;
57217;SDS011;43078;52.972;6.482;2022-12-15T05:01:32;13.80;;;7.85;;
57217;SDS011;43078;52.972;6.482;2022-12-15T05:04:17;12.23;;;7.20;;
57217;SDS011;43078;52.972;6.482;2022-12-15T05:07:01;14.77;;;7.32;;
57217;SDS011;43078;52.972;6.482;2022-12-15T05:09:46;12.73;;;7.70;;
57217;SDS011;43078;52.972;6.482;2022-12-15T05:12:30;15.27;;;7.32;;
57217;SDS011;43078;52.972;6.482;2022-12-15T05:15:14;10.93;;;6.35;;
57217;SDS011;43078;52.972;6.482;2022-12-15T05:17:59;11.50;;;6.25;;
57217;SDS011;43078;52.972;6.482;2022-12-15T05:20:43;10.85;;;5.95;;
57217;SDS011;43078;52.972;6.482;2022-12-15T05:23:27;9.38;;;5.88;;
57217;SDS011;43078;52.972;6.482;2022-12-15T05:26:11;12.13;;;6.68;;
57217;SDS011;43078;52.972;6.482;2022-12-15T05:28:55;13.15;;;7.03;;
57217;SDS011;43078;52.972;6.482;2022-12-15T05:31:39;20.13;;;9.38;;
57217;SDS011;43078;52.972;6.482;2022-12-15T05:34:19;13.52;;;7.22;;
57217;SDS011;43078;52.972;6.482;2022-12-15T05:36:47;12.88;;;6.80;;
57217;SDS011;43078;52.972;6.482;2022-12-15T05:39:13;12.15;;;6.05;;
57217;SDS011;43078;52.972;6.482;2022-12-15T05:41:39;12.68;;;6.72;;
57217;SDS011;43078;52.972;6.482;2022-12-15T05:44:04;15.35;;;8.27;;
57217;SDS011;43078;52.972;6.482;2022-12-15T05:46:30;15.38;;;8.20;;
57217;SDS011;43078;52.972;6.482;2022-12-15T05:48:56;11.07;;;6.13;;
57217;SDS011;43078;52.972;6.482;2022-12-15T05:51:21;17.08;;;7.25;;
57217;SDS011;43078;52.972;6.482;2022-12-15T05:53:47;14.57;;;7.65;;
57217;SDS011;43078;52.972;6.482;2022-12-15T05:56:13;11.55;;;6.75;;
57217;SDS011;43078;52.972;6.482;2022-12-15T05:58:39;13.90;;;8.57;;
57217;SDS011;43078;52.972;6.482;2022-12-15T06:01:09;12.90;;;6.95;;
57217;SDS011;43078;52.972;6.482;2022-12-15T06:03:36;14.10;;;6.47;;
57217;SDS011;43078;52.972;6.482;2022-12-15T06:06:03;17.13;;;8.93;;
57217;SDS011;43078;52.972;6.482;2022-12-15T06:08:30;11.60;;;6.47;;
57217;SDS011;43078;52.972;6.482;2022-12-15T06:10:57;16.90;;;7.93;;
57217;SDS011;43078;52.972;6.482;2022-12-15T06:13:24;12.57;;;6.78;;
57217;SDS011;43078;52.972;6.482;2022-12-15T06:15:58;12.93;;;6.65;;
57217;SDS011;43078;52.972;6.482;2022-12-15T06:18:24;10.52;;;5.93;;
57217;SDS011;43078;52.972;6.482;2022-12-15T06:20:57;13.30;;;7.10;;
57217;SDS011;43078;52.972;6.482;2022-12-15T06:23:27;19.70;;;8.70;;
57217;SDS011;43078;52.972;6.482;2022-12-15T06:25:54;14.90;;;7.07;;
57217;SDS011;43078;52.972;6.482;2022-12-15T06:28:20;20.92;;;9.05;;
57217;SDS011;43078;52.972;6.482;2022-12-15T06:30:52;23.52;;;9.10;;
57217;SDS011;43078;52.972;6.482;2022-12-15T06:33:19;14.68;;;8.23;;
57217;SDS011;43078;52.972;6.482;2022-12-15T06:35:45;19.20;;;9.98;;
57217;SDS011;43078;52.972;6.482;2022-12-15T06:38:11;17.05;;;9.50;;
57217;SDS011;43078;52.972;6.482;2022-12-15T06:40:37;13.80;;;7.00;;
57217;SDS011;43078;52.972;6.482;2022-12-15T06:43:03;11.88;;;6.70;;
57217;SDS011;43078;52.972;6.482;2022-12-15T06:45:30;12.98;;;6.30;;
57217;SDS011;43078;52.972;6.482;2022-12-15T06:47:55;17.73;;;9.32;;
57217;SDS011;43078;52.972;6.482;2022-12-15T06:50:21;16.05;;;8.65;;
57217;SDS011;43078;52.972;6.482;2022-12-15T06:52:50;12.65;;;7.20;;
57217;SDS011;43078;52.972;6.482;2022-12-15T06:55:19;16.50;;;8.25;;
57217;SDS011;43078;52.972;6.482;2022-12-15T06:57:47;18.10;;;8.10;;
57217;SDS011;43078;52.972;6.482;2022-12-15T07:00:13;16.48;;;8.40;;
57217;SDS011;43078;52.972;6.482;2022-12-15T07:02:40;20.38;;;8.77;;
57217;SDS011;43078;52.972;6.482;2022-12-15T07:05:06;17.10;;;7.43;;
57217;SDS011;43078;52.972;6.482;2022-12-15T07:07:33;10.05;;;6.18;;
57217;SDS011;43078;52.972;6.482;2022-12-15T07:09:59;14.27;;;6.68;;
57217;SDS011;43078;52.972;6.482;2022-12-15T07:12:24;14.88;;;7.03;;
57217;SDS011;43078;52.972;6.482;2022-12-15T07:14:50;15.07;;;7.60;;
57217;SDS011;43078;52.972;6.482;2022-12-15T07:17:15;16.48;;;8.05;;
57217;SDS011;43078;52.972;6.482;2022-12-15T07:19:41;18.00;;;8.45;;
57217;SDS011;43078;52.972;6.482;2022-12-15T07:22:07;13.23;;;7.40;;
57217;SDS011;43078;52.972;6.482;2022-12-15T07:24:32;16.23;;;7.50;;
57217;SDS011;43078;52.972;6.482;2022-12-15T07:26:58;17.50;;;7.57;;
57217;SDS011;43078;52.972;6.482;2022-12-15T07:29:23;18.48;;;7.90;;
57217;SDS011;43078;52.972;6.482;2022-12-15T07:31:49;18.38;;;7.82;;
57217;SDS011;43078;52.972;6.482;2022-12-15T07:34:14;11.10;;;6.05;;
57217;SDS011;43078;52.972;6.482;2022-12-15T07:36:40;17.90;;;7.85;;
57217;SDS011;43078;52.972;6.482;2022-12-15T07:39:06;14.02;;;8.00;;
57217;SDS011;43078;52.972;6.482;2022-12-15T07:41:31;15.65;;;8.18;;
57217;SDS011;43078;52.972;6.482;2022-12-15T07:43:57;14.60;;;7.60;;
57217;SDS011;43078;52.972;6.482;2022-12-15T07:46:23;14.50;;;7.55;;
57217;SDS011;43078;52.972;6.482;2022-12-15T07:48:50;15.50;;;6.88;;
57217;SDS011;43078;52.972;6.482;2022-12-15T07:51:17;14.40;;;7.00;;
57217;SDS011;43078;52.972;6.482;2022-12-15T07:53:44;14.55;;;7.43;;
57217;SDS011;43078;52.972;6.482;2022-12-15T07:56:10;11.57;;;6.22;;
57217;SDS011;43078;52.972;6.482;2022-12-15T07:58:36;13.35;;;6.75;;
57217;SDS011;43078;52.972;6.482;2022-12-15T08:01:03;14.75;;;7.45;;
57217;SDS011;43078;52.972;6.482;2022-12-15T08:03:30;17.83;;;8.98;;
57217;SDS011;43078;52.972;6.482;2022-12-15T08:05:56;13.38;;;6.85;;
57217;SDS011;43078;52.972;6.482;2022-12-15T08:08:22;11.35;;;6.45;;
57217;SDS011;43078;52.972;6.482;2022-12-15T08:10:48;18.50;;;8.98;;
57217;SDS011;43078;52.972;6.482;2022-12-15T08:13:13;16.23;;;7.50;;
57217;SDS011;43078;52.972;6.482;2022-12-15T08:15:40;17.20;;;8.50;;
57217;SDS011;43078;52.972;6.482;2022-12-15T08:18:05;16.30;;;6.57;;
57217;SDS011;43078;52.972;6.482;2022-12-15T08:20:33;15.30;;;7.70;;
57217;SDS011;43078;52.972;6.482;2022-12-15T08:22:59;15.40;;;8.18;;
57217;SDS011;43078;52.972;6.482;2022-12-15T08:25:25;14.70;;;7.22;;
57217;SDS011;43078;52.972;6.482;2022-12-15T08:27:54;13.65;;;7.38;;
57217;SDS011;43078;52.972;6.482;2022-12-15T08:30:20;15.23;;;6.80;;
57217;SDS011;43078;52.972;6.482;2022-12-15T08:32:46;10.38;;;6.13;;
57217;SDS011;43078;52.972;6.482;2022-12-15T08:35:12;14.10;;;7.70;;
57217;SDS011;43078;52.972;6.482;2022-12-15T08:37:38;15.15;;;7.30;;
57217;SDS011;43078;52.972;6.482;2022-12-15T08:40:04;13.77;;;7.35;;
57217;SDS011;43078;52.972;6.482;2022-12-15T08:42:36;13.63;;;7.22;;
57217;SDS011;43078;52.972;6.482;2022-12-15T08:45:02;20.13;;;9.27;;
57217;SDS011;43078;52.972;6.482;2022-12-15T08:47:29;17.42;;;8.15;;
57217;SDS011;43078;52.972;6.482;2022-12-15T08:49:55;19.17;;;9.68;;
57217;SDS011;43078;52.972;6.482;2022-12-15T08:52:21;12.85;;;7.13;;
57217;SDS011;43078;52.972;6.482;2022-12-15T08:54:47;18.88;;;9.25;;
57217;SDS011;43078;52.972;6.482;2022-12-15T08:57:13;12.20;;;7.55;;
57217;SDS011;43078;52.972;6.482;2022-12-15T08:59:38;22.30;;;9.07;;
57217;SDS011;43078;52.972;6.482;2022-12-15T09:02:04;17.27;;;8.82;;
57217;SDS011;43078;52.972;6.482;2022-12-15T09:04:30;17.70;;;8.00;;
57217;SDS011;43078;52.972;6.482;2022-12-15T09:06:55;19.75;;;9.80;;
57217;SDS011;43078;52.972;6.482;2022-12-15T09:09:21;18.20;;;9.55;;
57217;SDS011;43078;52.972;6.482;2022-12-15T09:11:47;13.63;;;7.47;;
57217;SDS011;43078;52.972;6.482;2022-12-15T09:14:14;17.02;;;9.30;;
57217;SDS011;43078;52.972;6.482;2022-12-15T09:16:41;16.42;;;9.23;;
57217;SDS011;43078;52.972;6.482;2022-12-15T09:19:07;19.52;;;10.05;;
57217;SDS011;43078;52.972;6.482;2022-12-15T09:21:33;25.13;;;11.13;;
57217;SDS011;43078;52.972;6.482;2022-12-15T09:24:00;17.00;;;9.57;;
57217;SDS011;43078;52.972;6.482;2022-12-15T09:26:28;18.30;;;10.23;;
57217;SDS011;43078;52.972;6.482;2022-12-15T09:28:55;17.25;;;9.50;;
57217;SDS011;43078;52.972;6.482;2022-12-15T09:31:22;15.95;;;8.65;;
57217;SDS011;43078;52.972;6.482;2022-12-15T09:33:52;14.93;;;8.88;;
57217;SDS011;43078;52.972;6.482;2022-12-15T09:36:19;18.98;;;10.05;;
57217;SDS011;43078;52.972;6.482;2022-12-15T09:38:44;19.58;;;10.43;;
57217;SDS011;43078;52.972;6.482;2022-12-15T09:43:41;20.50;;;10.65;;
57217;SDS011;43078;52.972;6.482;2022-12-15T09:46:18;17.83;;;10.18;;
57217;SDS011;43078;52.972;6.482;2022-12-15T09:48:48;21.58;;;10.63;;
57217;SDS011;43078;52.972;6.482;2022-12-15T09:51:15;18.08;;;9.48;;
57217;SDS011;43078;52.972;6.482;2022-12-15T09:53:43;20.75;;;9.95;;
57217;SDS011;43078;52.972;6.482;2022-12-15T09:56:14;16.38;;;9.32;;
57217;SDS011;43078;52.972;6.482;2022-12-15T10:01:51;18.27;;;10.25;;
57217;SDS011;43078;52.972;6.482;2022-12-15T10:07:36;18.85;;;11.05;;
57217;SDS011;43078;52.972;6.482;2022-12-15T10:10:11;19.42;;;11.05;;
57217;SDS011;43078;52.972;6.482;2022-12-15T10:12:39;17.67;;;10.55;;
57217;SDS011;43078;52.972;6.482;2022-12-15T10:15:16;21.77;;;9.75;;
57217;SDS011;43078;52.972;6.482;2022-12-15T10:17:47;18.27;;;10.45;;
57217;SDS011;43078;52.972;6.482;2022-12-15T10:20:36;18.55;;;10.25;;
57217;SDS011;43078;52.972;6.482;2022-12-15T10:23:09;20.17;;;10.43;;
57217;SDS011;43078;52.972;6.482;2022-12-15T10:25:57;23.92;;;11.10;;
57217;SDS011;43078;52.972;6.482;2022-12-15T10:28:50;22.23;;;10.75;;
57217;SDS011;43078;52.972;6.482;2022-12-15T10:31:20;18.92;;;9.38;;
57217;SDS011;43078;52.972;6.482;2022-12-15T10:33:57;17.23;;;8.73;;
57217;SDS011;43078;52.972;6.482;2022-12-15T10:36:33;16.73;;;8.25;;
57217;SDS011;43078;52.972;6.482;2022-12-15T10:38:59;18.10;;;8.25;;
57217;SDS011;43078;52.972;6.482;2022-12-15T10:41:25;17.92;;;8.90;;
57217;SDS011;43078;52.972;6.482;2022-12-15T10:43:55;15.57;;;8.65;;
57217;SDS011;43078;52.972;6.482;2022-12-15T10:46:22;15.75;;;8.60;;
57217;SDS011;43078;52.972;6.482;2022-12-15T10:51:29;19.52;;;8.57;;
57217;SDS011;43078;52.972;6.482;2022-12-15T10:59:43;18.02;;;9.07;;
57217;SDS011;43078;52.972;6.482;2022-12-15T11:07:44;17.33;;;8.45;;
57217;SDS011;43078;52.972;6.482;2022-12-15T11:13:22;14.45;;;7.47;;
57217;SDS011;43078;52.972;6.482;2022-12-15T11:15:58;15.50;;;8.38;;
57217;SDS011;43078;52.972;6.482;2022-12-15T11:18:39;14.88;;;7.22;;
57217;SDS011;43078;52.972;6.482;2022-12-15T11:21:23;17.05;;;8.80;;
57217;SDS011;43078;52.972;6.482;2022-12-15T11:24:04;15.32;;;8.45;;
57217;SDS011;43078;52.972;6.482;2022-12-15T11:27:00;14.25;;;7.32;;
57217;SDS011;43078;52.972;6.482;2022-12-15T11:29:53;17.25;;;7.90;;
57217;SDS011;43078;52.972;6.482;2022-12-15T11:32:35;15.05;;;8.27;;
57217;SDS011;43078;52.972;6.482;2022-12-15T11:35:02;16.88;;;7.82;;
57217;SDS011;43078;52.972;6.482;2022-12-15T11:37:36;14.30;;;8.30;;
57217;SDS011;43078;52.972;6.482;2022-12-15T11:40:24;15.02;;;8.32;;
57217;SDS011;43078;52.972;6.482;2022-12-15T11:45:54;16.00;;;7.55;;
57217;SDS011;43078;52.972;6.482;2022-12-15T11:56:49;17.65;;;7.90;;
57217;SDS011;43078;52.972;6.482;2022-12-15T11:59:50;16.10;;;8.85;;
57217;SDS011;43078;52.972;6.482;2022-12-15T12:02:31;17.70;;;8.00;;
57217;SDS011;43078;52.972;6.482;2022-12-15T12:07:46;15.13;;;8.02;;
57217;SDS011;43078;52.972;6.482;2022-12-15T12:10:37;14.45;;;7.60;;
57217;SDS011;43078;52.972;6.482;2022-12-15T12:13:30;17.45;;;7.50;;
57217;SDS011;43078;52.972;6.482;2022-12-15T12:16:09;16.23;;;7.85;;
57217;SDS011;43078;52.972;6.482;2022-12-15T12:18:58;18.52;;;7.68;;
57217;SDS011;43078;52.972;6.482;2022-12-15T12:21:34;18.27;;;7.85;;
57217;SDS011;43078;52.972;6.482;2022-12-15T12:24:15;15.75;;;7.85;;
57217;SDS011;43078;52.972;6.482;2022-12-15T12:26:44;14.95;;;7.82;;
57217;SDS011;43078;52.972;6.482;2022-12-15T12:29:12;15.43;;;7.43;;
57217;SDS011;43078;52.972;6.482;2022-12-15T12:34:24;15.35;;;7.75;;
57217;SDS011;43078;52.972;6.482;2022-12-15T12:37:25;17.83;;;8.68;;
57217;SDS011;43078;52.972;6.482;2022-12-15T12:39:52;13.52;;;7.13;;
57217;SDS011;43078;52.972;6.482;2022-12-15T12:42:27;13.88;;;7.30;;
57217;SDS011;43078;52.972;6.482;2022-12-15T12:44:55;14.27;;;7.07;;
57217;SDS011;43078;52.972;6.482;2022-12-15T12:47:25;17.85;;;6.75;;
57217;SDS011;43078;52.972;6.482;2022-12-15T12:50:17;15.13;;;6.70;;
57217;SDS011;43078;52.972;6.482;2022-12-15T12:52:48;16.67;;;7.18;;
57217;SDS011;43078;52.972;6.482;2022-12-15T12:58:02;15.65;;;7.68;;
57217;SDS011;43078;52.972;6.482;2022-12-15T13:00:28;18.48;;;7.60;;
57217;SDS011;43078;52.972;6.482;2022-12-15T13:03:12;14.25;;;7.93;;
57217;SDS011;43078;52.972;6.482;2022-12-15T13:05:45;17.70;;;7.53;;
57217;SDS011;43078;52.972;6.482;2022-12-15T13:10:39;18.77;;;7.55;;
57217;SDS011;43078;52.972;6.482;2022-12-15T13:16:35;19.20;;;7.30;;
57217;SDS011;43078;52.972;6.482;2022-12-15T13:21:45;20.88;;;8.77;;
57217;SDS011;43078;52.972;6.482;2022-12-15T13:24:24;13.85;;;7.32;;
57217;SDS011;43078;52.972;6.482;2022-12-15T13:29:35;13.48;;;7.53;;
57217;SDS011;43078;52.972;6.482;2022-12-15T13:32:50;14.93;;;7.50;;
57217;SDS011;43078;52.972;6.482;2022-12-15T13:37:46;13.52;;;7.57;;
57217;SDS011;43078;52.972;6.482;2022-12-15T13:45:59;14.02;;;7.40;;
57217;SDS011;43078;52.972;6.482;2022-12-15T13:48:43;15.52;;;7.38;;
57217;SDS011;43078;52.972;6.482;2022-12-15T13:51:17;15.55;;;6.60;;
57217;SDS011;43078;52.972;6.482;2022-12-15T13:53:55;12.70;;;6.68;;
57217;SDS011;43078;52.972;6.482;2022-12-15T13:59:19;14.25;;;7.15;;
57217;SDS011;43078;52.972;6.482;2022-12-15T14:02:28;15.25;;;7.28;;
57217;SDS011;43078;52.972;6.482;2022-12-15T14:12:57;15.60;;;7.90;;
57217;SDS011;43078;52.972;6.482;2022-12-15T14:15:31;15.20;;;7.13;;
57217;SDS011;43078;52.972;6.482;2022-12-15T14:17:59;15.73;;;7.80;;
57217;SDS011;43078;52.972;6.482;2022-12-15T14:20:47;15.98;;;7.55;;
57217;SDS011;43078;52.972;6.482;2022-12-15T14:23:18;15.00;;;7.25;;
57217;SDS011;43078;52.972;6.482;2022-12-15T14:25:52;14.73;;;7.82;;
57217;SDS011;43078;52.972;6.482;2022-12-15T14:28:23;14.73;;;7.57;;
57217;SDS011;43078;52.972;6.482;2022-12-15T14:31:14;17.42;;;7.35;;
57217;SDS011;43078;52.972;6.482;2022-12-15T14:34:05;16.50;;;7.35;;
57217;SDS011;43078;52.972;6.482;2022-12-15T14:36:35;15.95;;;7.57;;
57217;SDS011;43078;52.972;6.482;2022-12-15T14:39:05;16.08;;;7.82;;
57217;SDS011;43078;52.972;6.482;2022-12-15T14:41:43;14.80;;;7.30;;
57217;SDS011;43078;52.972;6.482;2022-12-15T14:44:19;14.35;;;7.45;;
57217;SDS011;43078;52.972;6.482;2022-12-15T14:46:52;22.25;;;7.95;;
57217;SDS011;43078;52.972;6.482;2022-12-15T14:49:23;16.95;;;8.13;;
57217;SDS011;43078;52.972;6.482;2022-12-15T14:51:59;15.18;;;7.90;;
57217;SDS011;43078;52.972;6.482;2022-12-15T14:54:29;19.25;;;7.72;;
57217;SDS011;43078;52.972;6.482;2022-12-15T14:59:38;12.30;;;7.28;;
57217;SDS011;43078;52.972;6.482;2022-12-15T15:05:00;17.60;;;8.10;;
57217;SDS011;43078;52.972;6.482;2022-12-15T15:07:29;16.27;;;8.18;;
57217;SDS011;43078;52.972;6.482;2022-12-15T15:10:02;15.98;;;8.60;;
57217;SDS011;43078;52.972;6.482;2022-12-15T15:12:46;20.60;;;9.50;;
57217;SDS011;43078;52.972;6.482;2022-12-15T15:15:14;16.80;;;9.30;;
57217;SDS011;43078;52.972;6.482;2022-12-15T15:17:49;18.33;;;10.20;;
57217;SDS011;43078;52.972;6.482;2022-12-15T15:20:18;16.08;;;9.10;;
57217;SDS011;43078;52.972;6.482;2022-12-15T15:23:00;15.88;;;8.95;;
57217;SDS011;43078;52.972;6.482;2022-12-15T15:28:11;18.42;;;9.57;;
57217;SDS011;43078;52.972;6.482;2022-12-15T15:33:09;20.95;;;10.50;;
57217;SDS011;43078;52.972;6.482;2022-12-15T15:35:35;19.17;;;9.65;;
57217;SDS011;43078;52.972;6.482;2022-12-15T15:38:03;22.42;;;10.88;;
57217;SDS011;43078;52.972;6.482;2022-12-15T15:40:35;17.40;;;10.13;;
57217;SDS011;43078;52.972;6.482;2022-12-15T15:43:00;21.23;;;10.75;;
57217;SDS011;43078;52.972;6.482;2022-12-15T15:45:31;20.45;;;10.70;;
57217;SDS011;43078;52.972;6.482;2022-12-15T15:47:57;18.75;;;9.77;;
57217;SDS011;43078;52.972;6.482;2022-12-15T15:50:24;21.02;;;11.02;;
57217;SDS011;43078;52.972;6.482;2022-12-15T15:52:53;19.92;;;10.68;;
57217;SDS011;43078;52.972;6.482;2022-12-15T15:55:23;18.05;;;10.50;;
57217;SDS011;43078;52.972;6.482;2022-12-15T15:57:53;17.05;;;9.90;;
57217;SDS011;43078;52.972;6.482;2022-12-15T16:00:19;17.88;;;10.68;;
57217;SDS011;43078;52.972;6.482;2022-12-15T16:02:47;17.27;;;9.52;;
57217;SDS011;43078;52.972;6.482;2022-12-15T16:05:19;18.90;;;10.55;;
57217;SDS011;43078;52.972;6.482;2022-12-15T16:07:45;18.27;;;11.20;;
57217;SDS011;43078;52.972;6.482;2022-12-15T16:10:14;17.85;;;10.80;;
57217;SDS011;43078;52.972;6.482;2022-12-15T16:12:49;21.55;;;10.80;;
57217;SDS011;43078;52.972;6.482;2022-12-15T16:15:18;18.98;;;10.57;;
57217;SDS011;43078;52.972;6.482;2022-12-15T16:17:44;18.98;;;11.13;;
57217;SDS011;43078;52.972;6.482;2022-12-15T16:20:11;22.45;;;12.35;;
57217;SDS011;43078;52.972;6.482;2022-12-15T16:22:38;24.27;;;11.30;;
57217;SDS011;43078;52.972;6.482;2022-12-15T16:25:09;19.05;;;11.45;;
57217;SDS011;43078;52.972;6.482;2022-12-15T16:27:39;19.90;;;12.07;;
57217;SDS011;43078;52.972;6.482;2022-12-15T16:30:14;18.85;;;11.65;;
57217;SDS011;43078;52.972;6.482;2022-12-15T16:32:51;25.02;;;12.32;;
57217;SDS011;43078;52.972;6.482;2022-12-15T16:35:18;18.80;;;11.55;;
57217;SDS011;43078;52.972;6.482;2022-12-15T16:37:50;18.65;;;11.27;;
57217;SDS011;43078;52.972;6.482;2022-12-15T16:40:17;18.73;;;11.98;;
57217;SDS011;43078;52.972;6.482;2022-12-15T16:43:02;23.02;;;12.73;;
57217;SDS011;43078;52.972;6.482;2022-12-15T16:45:44;22.35;;;13.70;;
57217;SDS011;43078;52.972;6.482;2022-12-15T16:48:12;22.00;;;13.10;;
57217;SDS011;43078;52.972;6.482;2022-12-15T16:50:39;19.08;;;11.43;;
57217;SDS011;43078;52.972;6.482;2022-12-15T16:53:14;17.30;;;10.75;;
57217;SDS011;43078;52.972;6.482;2022-12-15T16:55:42;23.55;;;13.40;;
57217;SDS011;43078;52.972;6.482;2022-12-15T16:58:09;20.85;;;12.95;;
57217;SDS011;43078;52.972;6.482;2022-12-15T17:00:39;18.60;;;12.13;;